OJAI

Queen Alia International Airport

Amman, Jordan
OJAI 221100Z 2212/2318 VRB02KT 6000 NSC BECMG 2214/2216 28008KT PROB30 2302/2306 4000 HZ BECMG 2306/2308 12008KT 5000 HZ
Issued Valid From Valid To
Jan-22 @ 11:00 UTC
(7 hours ago)
Jan-22 @ 12:00 UTC
(6 hours ago)
Jan-23 @ 18:00 UTC
(in 24 hours)
Expired Click to View Jan-22 @ 12:00 to Jan-22 @ 14:00
OJAI 221100Z 2212/2318 VRB02KT 6000 NSC
Wind Visibility Clouds
Variable at 2 knots 6,003 meters
  • No significant clouds
Becoming Jan-22 @ 14:00 to Jan-23 @ 06:00
BECMG 2214/2216 28008KT
Wind Visibility Clouds
280° at 8 knots 6,003 meters
  • No significant clouds
Probable  (Probability 30%) Jan-23 @ 02:00 to Jan-23 @ 06:00
PROB30 2302/2306 4000 HZ
Visibility Conditions
4,007 meters
  • Haze
Becoming Jan-23 @ 06:00 to Jan-23 @ 18:00
BECMG 2306/2308 12008KT 5000 HZ
Wind Visibility Clouds Conditions
120° at 8 knots 5,005 meters
  • No significant clouds
  • Haze
OJAI 221100Z 2212/2318 VRB02KT 6000 NSC BECMG 2214/2216 28008KT PROB30 2302/2306 4000 HZ BECMG 2306/2308 12008KT 5000 HZ
Issued Jan-22 @ 11:00 UTC
(7 hours ago)
Valid From Jan-22 @ 12:00 UTC
(6 hours ago)
Valid To Jan-23 @ 18:00 UTC
(in 24 hours)
Jan-22 @ 12:00 - Jan-22 @ 14:00
Wind Visibility
Variable at 2 knots 6,003 meters
Clouds
  • No significant clouds
Becoming Jan-22 @ 14:00 - Jan-23 @ 06:00
Wind Visibility
280° at 8 knots 6,003 meters
Clouds
  • No significant clouds
Probability 30% Probable Jan-23 @ 02:00 - Jan-23 @ 06:00
Conditions
  • Haze
Becoming Jan-23 @ 06:00 - Jan-23 @ 18:00
Wind Visibility
120° at 8 knots 5,005 meters
Clouds
  • No significant clouds
Conditions
  • Haze